sensor_id;sensor_type;location;lat;lon;timestamp;P1;durP1;ratioP1;P2;durP2;ratioP2
22939;SDS011;11636;52.086;5.090;2023-04-06T00:02:10;14.27;;;9.68;;
22939;SDS011;11636;52.086;5.090;2023-04-06T00:04:57;14.68;;;10.00;;
22939;SDS011;11636;52.086;5.090;2023-04-06T00:07:50;14.05;;;9.98;;
22939;SDS011;11636;52.086;5.090;2023-04-06T00:10:46;13.40;;;9.60;;
22939;SDS011;11636;52.086;5.090;2023-04-06T00:13:33;15.73;;;10.65;;
22939;SDS011;11636;52.086;5.090;2023-04-06T00:16:27;13.93;;;10.00;;
22939;SDS011;11636;52.086;5.090;2023-04-06T00:19:21;14.25;;;9.98;;
22939;SDS011;11636;52.086;5.090;2023-04-06T00:22:15;14.50;;;9.90;;
22939;SDS011;11636;52.086;5.090;2023-04-06T00:25:09;15.00;;;9.68;;
22939;SDS011;11636;52.086;5.090;2023-04-06T00:28:04;12.95;;;8.77;;
22939;SDS011;11636;52.086;5.090;2023-04-06T00:30:54;14.35;;;10.45;;
22939;SDS011;11636;52.086;5.090;2023-04-06T00:33:48;15.23;;;10.25;;
22939;SDS011;11636;52.086;5.090;2023-04-06T00:36:42;15.63;;;9.38;;
22939;SDS011;11636;52.086;5.090;2023-04-06T00:39:29;14.02;;;10.10;;
22939;SDS011;11636;52.086;5.090;2023-04-06T00:42:23;16.13;;;11.30;;
22939;SDS011;11636;52.086;5.090;2023-04-06T00:45:13;16.60;;;10.55;;
22939;SDS011;11636;52.086;5.090;2023-04-06T00:48:07;17.42;;;11.57;;
22939;SDS011;11636;52.086;5.090;2023-04-06T00:50:55;14.45;;;10.02;;
22939;SDS011;11636;52.086;5.090;2023-04-06T00:53:49;14.18;;;9.52;;
22939;SDS011;11636;52.086;5.090;2023-04-06T00:56:36;14.52;;;9.82;;
22939;SDS011;11636;52.086;5.090;2023-04-06T00:59:30;14.45;;;9.85;;
22939;SDS011;11636;52.086;5.090;2023-04-06T01:02:25;13.35;;;9.48;;
22939;SDS011;11636;52.086;5.090;2023-04-06T01:05:12;15.38;;;9.82;;
22939;SDS011;11636;52.086;5.090;2023-04-06T01:08:07;12.88;;;9.05;;
22939;SDS011;11636;52.086;5.090;2023-04-06T01:11:03;11.07;;;8.10;;
22939;SDS011;11636;52.086;5.090;2023-04-06T01:13:50;15.05;;;9.18;;
22939;SDS011;11636;52.086;5.090;2023-04-06T01:16:44;12.95;;;9.18;;
22939;SDS011;11636;52.086;5.090;2023-04-06T01:19:38;12.65;;;9.20;;
22939;SDS011;11636;52.086;5.090;2023-04-06T01:22:26;14.63;;;10.10;;
22939;SDS011;11636;52.086;5.090;2023-04-06T01:25:20;12.77;;;8.48;;
22939;SDS011;11636;52.086;5.090;2023-04-06T01:28:07;12.63;;;8.82;;
22939;SDS011;11636;52.086;5.090;2023-04-06T01:31:01;12.23;;;8.65;;
22939;SDS011;11636;52.086;5.090;2023-04-06T01:33:55;13.40;;;9.35;;
22939;SDS011;11636;52.086;5.090;2023-04-06T01:36:49;11.55;;;8.35;;
22939;SDS011;11636;52.086;5.090;2023-04-06T01:39:36;13.07;;;9.05;;
22939;SDS011;11636;52.086;5.090;2023-04-06T01:42:30;12.18;;;8.00;;
22939;SDS011;11636;52.086;5.090;2023-04-06T01:45:17;13.57;;;9.27;;
22939;SDS011;11636;52.086;5.090;2023-04-06T01:48:11;13.32;;;9.00;;
22939;SDS011;11636;52.086;5.090;2023-04-06T01:51:05;11.00;;;7.53;;
22939;SDS011;11636;52.086;5.090;2023-04-06T01:53:52;12.45;;;7.78;;
22939;SDS011;11636;52.086;5.090;2023-04-06T01:56:46;13.32;;;8.30;;
22939;SDS011;11636;52.086;5.090;2023-04-06T01:59:33;11.18;;;7.80;;
22939;SDS011;11636;52.086;5.090;2023-04-06T02:02:27;11.02;;;8.07;;
22939;SDS011;11636;52.086;5.090;2023-04-06T02:05:14;10.05;;;7.00;;
22939;SDS011;11636;52.086;5.090;2023-04-06T02:08:08;10.30;;;6.95;;
22939;SDS011;11636;52.086;5.090;2023-04-06T02:10:55;9.57;;;6.88;;
22939;SDS011;11636;52.086;5.090;2023-04-06T02:13:49;10.18;;;6.85;;
22939;SDS011;11636;52.086;5.090;2023-04-06T02:16:43;11.18;;;7.40;;
22939;SDS011;11636;52.086;5.090;2023-04-06T02:19:37;12.00;;;7.45;;
22939;SDS011;11636;52.086;5.090;2023-04-06T02:22:31;9.93;;;6.70;;
22939;SDS011;11636;52.086;5.090;2023-04-06T02:25:25;9.68;;;6.80;;
22939;SDS011;11636;52.086;5.090;2023-04-06T02:28:19;12.05;;;7.93;;
22939;SDS011;11636;52.086;5.090;2023-04-06T02:31:06;11.52;;;7.93;;
22939;SDS011;11636;52.086;5.090;2023-04-06T02:34:00;10.38;;;7.30;;
22939;SDS011;11636;52.086;5.090;2023-04-06T02:36:54;12.48;;;7.93;;
22939;SDS011;11636;52.086;5.090;2023-04-06T02:39:48;10.40;;;7.05;;
22939;SDS011;11636;52.086;5.090;2023-04-06T02:42:35;10.60;;;7.25;;
22939;SDS011;11636;52.086;5.090;2023-04-06T02:45:29;10.52;;;7.30;;
22939;SDS011;11636;52.086;5.090;2023-04-06T02:48:23;11.43;;;7.63;;
22939;SDS011;11636;52.086;5.090;2023-04-06T02:51:17;10.55;;;7.30;;
22939;SDS011;11636;52.086;5.090;2023-04-06T02:54:11;12.73;;;8.43;;
22939;SDS011;11636;52.086;5.090;2023-04-06T02:56:58;12.80;;;8.00;;
22939;SDS011;11636;52.086;5.090;2023-04-06T02:59:52;13.60;;;8.63;;
22939;SDS011;11636;52.086;5.090;2023-04-06T03:02:39;10.50;;;7.60;;
22939;SDS011;11636;52.086;5.090;2023-04-06T03:05:33;13.25;;;7.93;;
22939;SDS011;11636;52.086;5.090;2023-04-06T03:08:21;10.77;;;7.53;;
22939;SDS011;11636;52.086;5.090;2023-04-06T03:11:15;10.98;;;8.00;;
22939;SDS011;11636;52.086;5.090;2023-04-06T03:14:02;11.40;;;7.75;;
22939;SDS011;11636;52.086;5.090;2023-04-06T03:16:56;11.20;;;7.55;;
22939;SDS011;11636;52.086;5.090;2023-04-06T03:19:50;9.40;;;6.82;;
22939;SDS011;11636;52.086;5.090;2023-04-06T03:22:37;12.55;;;8.63;;
22939;SDS011;11636;52.086;5.090;2023-04-06T03:25:31;11.45;;;8.02;;
22939;SDS011;11636;52.086;5.090;2023-04-06T03:28:18;11.50;;;8.25;;
22939;SDS011;11636;52.086;5.090;2023-04-06T03:31:12;11.65;;;7.93;;
22939;SDS011;11636;52.086;5.090;2023-04-06T03:34:06;13.20;;;8.05;;
22939;SDS011;11636;52.086;5.090;2023-04-06T03:36:53;13.07;;;8.38;;
22939;SDS011;11636;52.086;5.090;2023-04-06T03:39:56;12.32;;;7.75;;
22939;SDS011;11636;52.086;5.090;2023-04-06T03:42:43;10.70;;;7.18;;
22939;SDS011;11636;52.086;5.090;2023-04-06T03:45:37;10.95;;;7.50;;
22939;SDS011;11636;52.086;5.090;2023-04-06T03:48:31;10.43;;;7.38;;
22939;SDS011;11636;52.086;5.090;2023-04-06T03:51:25;11.88;;;8.30;;
22939;SDS011;11636;52.086;5.090;2023-04-06T03:54:12;11.95;;;7.95;;
22939;SDS011;11636;52.086;5.090;2023-04-06T03:57:06;11.27;;;8.43;;
22939;SDS011;11636;52.086;5.090;2023-04-06T03:59:53;12.77;;;8.32;;
22939;SDS011;11636;52.086;5.090;2023-04-06T04:02:47;14.48;;;9.70;;
22939;SDS011;11636;52.086;5.090;2023-04-06T04:05:34;12.35;;;8.50;;
22939;SDS011;11636;52.086;5.090;2023-04-06T04:08:28;11.95;;;8.30;;
22939;SDS011;11636;52.086;5.090;2023-04-06T04:11:15;13.48;;;8.95;;
22939;SDS011;11636;52.086;5.090;2023-04-06T04:14:09;13.15;;;8.77;;
22939;SDS011;11636;52.086;5.090;2023-04-06T04:16:56;13.68;;;9.05;;
22939;SDS011;11636;52.086;5.090;2023-04-06T04:19:50;13.52;;;8.85;;
22939;SDS011;11636;52.086;5.090;2023-04-06T04:22:37;13.18;;;8.88;;
22939;SDS011;11636;52.086;5.090;2023-04-06T04:25:31;12.30;;;8.48;;
22939;SDS011;11636;52.086;5.090;2023-04-06T04:28:25;11.63;;;7.80;;
22939;SDS011;11636;52.086;5.090;2023-04-06T04:31:12;11.68;;;8.45;;
22939;SDS011;11636;52.086;5.090;2023-04-06T04:34:06;13.48;;;8.82;;
22939;SDS011;11636;52.086;5.090;2023-04-06T04:36:53;12.15;;;8.27;;
22939;SDS011;11636;52.086;5.090;2023-04-06T04:39:47;11.85;;;7.90;;
22939;SDS011;11636;52.086;5.090;2023-04-06T04:42:34;13.27;;;9.02;;
22939;SDS011;11636;52.086;5.090;2023-04-06T04:45:28;13.65;;;8.82;;
22939;SDS011;11636;52.086;5.090;2023-04-06T04:48:15;11.95;;;8.90;;
22939;SDS011;11636;52.086;5.090;2023-04-06T04:51:09;13.38;;;8.57;;
22939;SDS011;11636;52.086;5.090;2023-04-06T04:53:56;13.48;;;8.82;;
22939;SDS011;11636;52.086;5.090;2023-04-06T04:56:50;13.88;;;10.18;;
22939;SDS011;11636;52.086;5.090;2023-04-06T04:59:38;14.45;;;9.48;;
22939;SDS011;11636;52.086;5.090;2023-04-06T05:02:31;15.57;;;9.90;;
22939;SDS011;11636;52.086;5.090;2023-04-06T05:05:18;16.35;;;10.98;;
22939;SDS011;11636;52.086;5.090;2023-04-06T05:08:12;16.27;;;10.98;;
22939;SDS011;11636;52.086;5.090;2023-04-06T05:11:06;16.08;;;10.38;;
22939;SDS011;11636;52.086;5.090;2023-04-06T05:14:00;13.25;;;9.30;;
22939;SDS011;11636;52.086;5.090;2023-04-06T05:16:54;15.98;;;11.00;;
22939;SDS011;11636;52.086;5.090;2023-04-06T05:19:41;14.02;;;9.60;;
22939;SDS011;11636;52.086;5.090;2023-04-06T05:22:36;12.52;;;9.05;;
22939;SDS011;11636;52.086;5.090;2023-04-06T05:25:23;14.18;;;9.45;;
22939;SDS011;11636;52.086;5.090;2023-04-06T05:28:17;14.55;;;9.88;;
22939;SDS011;11636;52.086;5.090;2023-04-06T05:31:05;13.50;;;9.13;;
22939;SDS011;11636;52.086;5.090;2023-04-06T05:33:58;15.10;;;10.00;;
22939;SDS011;11636;52.086;5.090;2023-04-06T05:36:46;15.48;;;10.98;;
22939;SDS011;11636;52.086;5.090;2023-04-06T05:39:39;13.15;;;8.98;;
22939;SDS011;11636;52.086;5.090;2023-04-06T05:42:37;16.45;;;11.25;;
22939;SDS011;11636;52.086;5.090;2023-04-06T05:45:24;14.55;;;10.23;;
22939;SDS011;11636;52.086;5.090;2023-04-06T05:48:18;12.93;;;9.07;;
22939;SDS011;11636;52.086;5.090;2023-04-06T05:51:05;17.88;;;11.20;;
22939;SDS011;11636;52.086;5.090;2023-04-06T05:53:59;15.80;;;10.00;;
22939;SDS011;11636;52.086;5.090;2023-04-06T05:56:46;13.55;;;8.82;;
22939;SDS011;11636;52.086;5.090;2023-04-06T05:59:40;12.50;;;8.93;;
22939;SDS011;11636;52.086;5.090;2023-04-06T06:02:34;12.23;;;8.65;;
22939;SDS011;11636;52.086;5.090;2023-04-06T06:05:22;13.50;;;9.38;;
22939;SDS011;11636;52.086;5.090;2023-04-06T06:08:15;12.32;;;8.90;;
22939;SDS011;11636;52.086;5.090;2023-04-06T06:11:09;13.40;;;9.90;;
22939;SDS011;11636;52.086;5.090;2023-04-06T06:14:03;16.20;;;9.93;;
22939;SDS011;11636;52.086;5.090;2023-04-06T06:16:50;13.95;;;9.20;;
22939;SDS011;11636;52.086;5.090;2023-04-06T06:19:51;13.25;;;9.13;;
22939;SDS011;11636;52.086;5.090;2023-04-06T06:22:38;13.93;;;9.27;;
22939;SDS011;11636;52.086;5.090;2023-04-06T06:25:33;12.88;;;9.25;;
22939;SDS011;11636;52.086;5.090;2023-04-06T06:28:27;13.35;;;9.75;;
22939;SDS011;11636;52.086;5.090;2023-04-06T06:31:15;14.35;;;9.57;;
22939;SDS011;11636;52.086;5.090;2023-04-06T06:34:09;14.70;;;9.95;;
22939;SDS011;11636;52.086;5.090;2023-04-06T06:37:03;15.10;;;10.63;;
22939;SDS011;11636;52.086;5.090;2023-04-06T06:39:51;16.55;;;11.40;;
22939;SDS011;11636;52.086;5.090;2023-04-06T06:42:45;17.63;;;11.48;;
22939;SDS011;11636;52.086;5.090;2023-04-06T06:45:39;23.77;;;15.85;;
22939;SDS011;11636;52.086;5.090;2023-04-06T06:48:27;18.65;;;12.05;;
22939;SDS011;11636;52.086;5.090;2023-04-06T06:51:20;17.15;;;11.93;;
22939;SDS011;11636;52.086;5.090;2023-04-06T06:54:07;19.90;;;12.50;;
22939;SDS011;11636;52.086;5.090;2023-04-06T06:57:01;21.73;;;14.45;;
22939;SDS011;11636;52.086;5.090;2023-04-06T06:59:55;20.15;;;14.02;;
22939;SDS011;11636;52.086;5.090;2023-04-06T07:02:49;17.88;;;12.48;;
22939;SDS011;11636;52.086;5.090;2023-04-06T07:05:47;15.48;;;10.63;;
22939;SDS011;11636;52.086;5.090;2023-04-06T07:08:45;13.25;;;9.43;;
22939;SDS011;11636;52.086;5.090;2023-04-06T07:11:39;13.90;;;9.82;;
22939;SDS011;11636;52.086;5.090;2023-04-06T07:14:33;16.65;;;11.50;;
22939;SDS011;11636;52.086;5.090;2023-04-06T07:17:27;19.48;;;13.07;;
22939;SDS011;11636;52.086;5.090;2023-04-06T07:20:14;22.45;;;14.32;;
22939;SDS011;11636;52.086;5.090;2023-04-06T07:23:08;16.05;;;10.02;;
22939;SDS011;11636;52.086;5.090;2023-04-06T07:25:56;17.17;;;11.35;;
22939;SDS011;11636;52.086;5.090;2023-04-06T07:28:49;17.08;;;11.95;;
22939;SDS011;11636;52.086;5.090;2023-04-06T07:31:36;23.55;;;14.57;;
22939;SDS011;11636;52.086;5.090;2023-04-06T07:34:30;15.60;;;10.68;;
22939;SDS011;11636;52.086;5.090;2023-04-06T07:37:24;19.92;;;13.00;;
22939;SDS011;11636;52.086;5.090;2023-04-06T07:40:11;18.30;;;11.93;;
22939;SDS011;11636;52.086;5.090;2023-04-06T07:43:05;18.23;;;12.23;;
22939;SDS011;11636;52.086;5.090;2023-04-06T07:45:59;20.95;;;14.63;;
22939;SDS011;11636;52.086;5.090;2023-04-06T07:48:53;22.33;;;16.23;;
22939;SDS011;11636;52.086;5.090;2023-04-06T07:51:41;22.95;;;14.48;;
22939;SDS011;11636;52.086;5.090;2023-04-06T07:54:34;25.15;;;14.70;;
22939;SDS011;11636;52.086;5.090;2023-04-06T07:57:21;18.23;;;12.85;;
22939;SDS011;11636;52.086;5.090;2023-04-06T08:00:15;20.17;;;14.27;;
22939;SDS011;11636;52.086;5.090;2023-04-06T08:03:03;18.10;;;12.65;;
22939;SDS011;11636;52.086;5.090;2023-04-06T08:05:57;20.60;;;14.45;;
22939;SDS011;11636;52.086;5.090;2023-04-06T08:08:44;21.52;;;14.60;;
22939;SDS011;11636;52.086;5.090;2023-04-06T08:11:37;19.67;;;13.95;;
22939;SDS011;11636;52.086;5.090;2023-04-06T08:14:24;24.55;;;17.05;;
22939;SDS011;11636;52.086;5.090;2023-04-06T08:17:18;26.48;;;16.80;;
22939;SDS011;11636;52.086;5.090;2023-04-06T08:20:12;20.00;;;14.68;;
22939;SDS011;11636;52.086;5.090;2023-04-06T08:23:00;23.67;;;15.55;;
22939;SDS011;11636;52.086;5.090;2023-04-06T08:25:53;20.92;;;13.55;;
22939;SDS011;11636;52.086;5.090;2023-04-06T08:28:47;19.38;;;12.65;;
22939;SDS011;11636;52.086;5.090;2023-04-06T08:31:34;18.40;;;12.77;;
22939;SDS011;11636;52.086;5.090;2023-04-06T08:34:28;21.58;;;14.10;;
22939;SDS011;11636;52.086;5.090;2023-04-06T08:37:16;23.70;;;15.30;;
22939;SDS011;11636;52.086;5.090;2023-04-06T08:40:09;19.70;;;13.70;;
22939;SDS011;11636;52.086;5.090;2023-04-06T08:43:06;21.90;;;14.15;;
22939;SDS011;11636;52.086;5.090;2023-04-06T08:46:04;19.23;;;12.57;;
22939;SDS011;11636;52.086;5.090;2023-04-06T08:48:52;24.40;;;16.02;;
22939;SDS011;11636;52.086;5.090;2023-04-06T08:51:45;20.88;;;15.70;;
22939;SDS011;11636;52.086;5.090;2023-04-06T08:54:40;19.27;;;13.80;;
22939;SDS011;11636;52.086;5.090;2023-04-06T08:57:28;24.90;;;16.90;;
22939;SDS011;11636;52.086;5.090;2023-04-06T09:00:23;24.85;;;17.35;;
22939;SDS011;11636;52.086;5.090;2023-04-06T09:03:19;21.90;;;15.15;;
22939;SDS011;11636;52.086;5.090;2023-04-06T09:06:14;23.33;;;15.63;;
22939;SDS011;11636;52.086;5.090;2023-04-06T09:09:01;25.95;;;16.75;;
22939;SDS011;11636;52.086;5.090;2023-04-06T09:11:55;22.13;;;16.00;;
22939;SDS011;11636;52.086;5.090;2023-04-06T09:14:48;21.23;;;15.55;;
22939;SDS011;11636;52.086;5.090;2023-04-06T09:17:41;22.95;;;15.85;;
22939;SDS011;11636;52.086;5.090;2023-04-06T09:20:30;28.83;;;19.65;;
22939;SDS011;11636;52.086;5.090;2023-04-06T09:23:24;30.50;;;19.27;;
22939;SDS011;11636;52.086;5.090;2023-04-06T09:26:13;26.63;;;18.77;;
22939;SDS011;11636;52.086;5.090;2023-04-06T09:29:08;27.58;;;19.58;;
22939;SDS011;11636;52.086;5.090;2023-04-06T09:32:03;24.30;;;17.42;;
22939;SDS011;11636;52.086;5.090;2023-04-06T09:35:07;27.42;;;20.67;;
22939;SDS011;11636;52.086;5.090;2023-04-06T09:38:10;28.38;;;18.92;;
22939;SDS011;11636;52.086;5.090;2023-04-06T09:40:58;25.05;;;17.65;;
22939;SDS011;11636;52.086;5.090;2023-04-06T09:43:52;25.00;;;17.58;;
22939;SDS011;11636;52.086;5.090;2023-04-06T09:46:49;29.08;;;19.98;;
22939;SDS011;11636;52.086;5.090;2023-04-06T09:49:47;29.65;;;20.77;;
22939;SDS011;11636;52.086;5.090;2023-04-06T09:52:37;34.30;;;21.52;;
22939;SDS011;11636;52.086;5.090;2023-04-06T09:55:45;27.90;;;18.80;;
22939;SDS011;11636;52.086;5.090;2023-04-06T10:01:34;29.17;;;19.40;;
22939;SDS011;11636;52.086;5.090;2023-04-06T10:04:36;29.75;;;18.08;;
22939;SDS011;11636;52.086;5.090;2023-04-06T10:07:36;24.40;;;15.68;;
22939;SDS011;11636;52.086;5.090;2023-04-06T10:10:45;20.23;;;13.85;;
22939;SDS011;11636;52.086;5.090;2023-04-06T10:13:39;19.13;;;12.68;;
22939;SDS011;11636;52.086;5.090;2023-04-06T10:16:28;17.80;;;12.88;;
22939;SDS011;11636;52.086;5.090;2023-04-06T10:19:24;22.73;;;14.43;;
22939;SDS011;11636;52.086;5.090;2023-04-06T10:22:26;22.15;;;14.05;;
22939;SDS011;11636;52.086;5.090;2023-04-06T10:25:29;21.23;;;13.60;;
22939;SDS011;11636;52.086;5.090;2023-04-06T10:28:17;17.42;;;13.13;;
22939;SDS011;11636;52.086;5.090;2023-04-06T10:31:13;19.23;;;13.02;;
22939;SDS011;11636;52.086;5.090;2023-04-06T10:34:07;16.75;;;12.18;;
22939;SDS011;11636;52.086;5.090;2023-04-06T10:36:54;16.92;;;12.30;;
22939;SDS011;11636;52.086;5.090;2023-04-06T10:39:52;15.48;;;11.05;;
22939;SDS011;11636;52.086;5.090;2023-04-06T10:42:54;16.58;;;11.00;;
22939;SDS011;11636;52.086;5.090;2023-04-06T10:45:42;15.20;;;11.20;;
22939;SDS011;11636;52.086;5.090;2023-04-06T10:48:44;13.73;;;9.85;;
22939;SDS011;11636;52.086;5.090;2023-04-06T10:51:55;12.65;;;9.07;;
22939;SDS011;11636;52.086;5.090;2023-04-06T10:54:43;15.05;;;10.38;;
22939;SDS011;11636;52.086;5.090;2023-04-06T10:57:38;14.60;;;9.57;;
22939;SDS011;11636;52.086;5.090;2023-04-06T11:00:25;15.00;;;10.25;;
22939;SDS011;11636;52.086;5.090;2023-04-06T11:03:42;12.18;;;8.82;;
22939;SDS011;11636;52.086;5.090;2023-04-06T11:06:46;13.85;;;9.68;;
22939;SDS011;11636;52.086;5.090;2023-04-06T11:09:37;13.80;;;9.50;;
22939;SDS011;11636;52.086;5.090;2023-04-06T11:12:55;12.25;;;9.20;;
22939;SDS011;11636;52.086;5.090;2023-04-06T11:15:43;14.18;;;8.90;;
22939;SDS011;11636;52.086;5.090;2023-04-06T11:18:37;13.98;;;9.60;;
22939;SDS011;11636;52.086;5.090;2023-04-06T11:21:34;12.25;;;8.70;;
22939;SDS011;11636;52.086;5.090;2023-04-06T11:24:33;12.18;;;8.65;;
22939;SDS011;11636;52.086;5.090;2023-04-06T11:27:27;10.80;;;8.07;;
22939;SDS011;11636;52.086;5.090;2023-04-06T11:30:17;10.93;;;7.60;;
22939;SDS011;11636;52.086;5.090;2023-04-06T11:33:19;9.75;;;7.28;;
22939;SDS011;11636;52.086;5.090;2023-04-06T11:36:08;13.60;;;8.93;;
22939;SDS011;11636;52.086;5.090;2023-04-06T11:39:03;11.57;;;7.82;;
22939;SDS011;11636;52.086;5.090;2023-04-06T11:41:50;11.13;;;8.43;;
22939;SDS011;11636;52.086;5.090;2023-04-06T11:44:46;10.15;;;8.13;;
22939;SDS011;11636;52.086;5.090;2023-04-06T11:47:34;10.93;;;7.57;;
22939;SDS011;11636;52.086;5.090;2023-04-06T11:50:36;10.68;;;8.30;;
22939;SDS011;11636;52.086;5.090;2023-04-06T11:53:30;11.77;;;8.73;;
22939;SDS011;11636;52.086;5.090;2023-04-06T11:56:29;11.38;;;8.15;;
22939;SDS011;11636;52.086;5.090;2023-04-06T11:59:23;11.77;;;7.70;;
22939;SDS011;11636;52.086;5.090;2023-04-06T12:02:10;10.68;;;7.68;;
22939;SDS011;11636;52.086;5.090;2023-04-06T12:05:04;15.05;;;8.20;;
22939;SDS011;11636;52.086;5.090;2023-04-06T12:07:59;12.27;;;8.23;;
22939;SDS011;11636;52.086;5.090;2023-04-06T12:10:53;12.68;;;8.60;;
22939;SDS011;11636;52.086;5.090;2023-04-06T12:13:47;11.15;;;8.57;;
22939;SDS011;11636;52.086;5.090;2023-04-06T12:16:34;14.00;;;9.45;;
22939;SDS011;11636;52.086;5.090;2023-04-06T12:19:28;16.52;;;9.68;;
22939;SDS011;11636;52.086;5.090;2023-04-06T12:22:22;17.90;;;10.18;;
22939;SDS011;11636;52.086;5.090;2023-04-06T12:25:16;13.57;;;10.10;;
22939;SDS011;11636;52.086;5.090;2023-04-06T12:28:03;14.82;;;11.25;;
22939;SDS011;11636;52.086;5.090;2023-04-06T12:30:57;15.13;;;9.98;;
22939;SDS011;11636;52.086;5.090;2023-04-06T12:33:47;13.60;;;9.95;;
22939;SDS011;11636;52.086;5.090;2023-04-06T12:36:42;14.60;;;10.07;;
22939;SDS011;11636;52.086;5.090;2023-04-06T12:39:29;14.45;;;10.05;;
22939;SDS011;11636;52.086;5.090;2023-04-06T12:42:23;16.30;;;10.68;;
22939;SDS011;11636;52.086;5.090;2023-04-06T12:45:17;14.50;;;10.50;;
22939;SDS011;11636;52.086;5.090;2023-04-06T12:48:04;16.45;;;10.70;;
22939;SDS011;11636;52.086;5.090;2023-04-06T12:50:58;16.00;;;11.55;;
22939;SDS011;11636;52.086;5.090;2023-04-06T12:53:46;19.80;;;12.27;;
22939;SDS011;11636;52.086;5.090;2023-04-06T12:56:41;16.95;;;11.15;;
22939;SDS011;11636;52.086;5.090;2023-04-06T12:59:28;16.35;;;11.40;;
22939;SDS011;11636;52.086;5.090;2023-04-06T13:02:27;17.42;;;11.27;;
22939;SDS011;11636;52.086;5.090;2023-04-06T13:05:14;14.90;;;11.23;;
22939;SDS011;11636;52.086;5.090;2023-04-06T13:08:14;20.23;;;12.40;;
22939;SDS011;11636;52.086;5.090;2023-04-06T13:11:01;17.73;;;12.18;;
22939;SDS011;11636;52.086;5.090;2023-04-06T13:13:55;16.33;;;11.27;;
22939;SDS011;11636;52.086;5.090;2023-04-06T13:16:49;17.58;;;12.13;;
22939;SDS011;11636;52.086;5.090;2023-04-06T13:19:43;15.82;;;11.55;;
22939;SDS011;11636;52.086;5.090;2023-04-06T13:22:37;16.63;;;11.57;;
22939;SDS011;11636;52.086;5.090;2023-04-06T13:25:24;16.83;;;11.93;;
22939;SDS011;11636;52.086;5.090;2023-04-06T13:28:18;18.27;;;12.00;;
22939;SDS011;11636;52.086;5.090;2023-04-06T13:31:05;16.13;;;12.27;;
22939;SDS011;11636;52.086;5.090;2023-04-06T13:33:59;21.33;;;12.95;;
22939;SDS011;11636;52.086;5.090;2023-04-06T13:36:46;19.92;;;13.88;;
22939;SDS011;11636;52.086;5.090;2023-04-06T13:39:40;18.50;;;12.40;;
22939;SDS011;11636;52.086;5.090;2023-04-06T13:42:27;15.82;;;10.82;;
22939;SDS011;11636;52.086;5.090;2023-04-06T13:45:21;16.50;;;12.32;;
22939;SDS011;11636;52.086;5.090;2023-04-06T13:48:08;22.40;;;13.68;;
22939;SDS011;11636;52.086;5.090;2023-04-06T13:51:11;20.50;;;14.43;;
22939;SDS011;11636;52.086;5.090;2023-04-06T13:54:12;19.27;;;13.27;;
22939;SDS011;11636;52.086;5.090;2023-04-06T13:56:59;19.13;;;13.80;;
22939;SDS011;11636;52.086;5.090;2023-04-06T13:59:54;19.33;;;13.82;;
22939;SDS011;11636;52.086;5.090;2023-04-06T14:02:41;19.38;;;12.77;;
22939;SDS011;11636;52.086;5.090;2023-04-06T14:05:35;22.45;;;14.25;;
22939;SDS011;11636;52.086;5.090;2023-04-06T14:08:22;18.85;;;13.82;;
22939;SDS011;11636;52.086;5.090;2023-04-06T14:11:16;19.50;;;14.52;;
22939;SDS011;11636;52.086;5.090;2023-04-06T14:14:03;20.05;;;14.88;;
22939;SDS011;11636;52.086;5.090;2023-04-06T14:16:57;19.35;;;13.90;;
22939;SDS011;11636;52.086;5.090;2023-04-06T14:19:51;19.17;;;13.68;;
22939;SDS011;11636;52.086;5.090;2023-04-06T14:22:39;17.85;;;13.18;;
22939;SDS011;11636;52.086;5.090;2023-04-06T14:25:36;16.67;;;12.35;;
22939;SDS011;11636;52.086;5.090;2023-04-06T14:28:23;18.00;;;13.73;;
22939;SDS011;11636;52.086;5.090;2023-04-06T14:31:17;19.52;;;14.00;;
22939;SDS011;11636;52.086;5.090;2023-04-06T14:34:04;19.17;;;14.13;;
22939;SDS011;11636;52.086;5.090;2023-04-06T14:36:58;15.95;;;12.65;;
22939;SDS011;11636;52.086;5.090;2023-04-06T14:39:52;16.60;;;13.07;;
22939;SDS011;11636;52.086;5.090;2023-04-06T14:42:39;16.38;;;12.57;;
22939;SDS011;11636;52.086;5.090;2023-04-06T14:45:33;16.88;;;12.73;;
22939;SDS011;11636;52.086;5.090;2023-04-06T14:48:25;16.70;;;12.35;;
22939;SDS011;11636;52.086;5.090;2023-04-06T14:51:19;16.60;;;12.88;;
22939;SDS011;11636;52.086;5.090;2023-04-06T14:54:06;15.85;;;12.75;;
22939;SDS011;11636;52.086;5.090;2023-04-06T14:57:00;17.15;;;12.43;;
22939;SDS011;11636;52.086;5.090;2023-04-06T14:59:48;17.58;;;12.40;;
22939;SDS011;11636;52.086;5.090;2023-04-06T15:02:42;14.48;;;10.77;;
22939;SDS011;11636;52.086;5.090;2023-04-06T15:05:30;15.30;;;11.40;;
22939;SDS011;11636;52.086;5.090;2023-04-06T15:08:24;14.27;;;10.68;;
22939;SDS011;11636;52.086;5.090;2023-04-06T15:11:12;17.30;;;12.35;;
22939;SDS011;11636;52.086;5.090;2023-04-06T15:14:06;14.15;;;10.27;;
22939;SDS011;11636;52.086;5.090;2023-04-06T15:17:00;14.23;;;10.80;;
22939;SDS011;11636;52.086;5.090;2023-04-06T15:19:48;14.25;;;10.82;;
22939;SDS011;11636;52.086;5.090;2023-04-06T15:22:42;14.30;;;11.13;;
22939;SDS011;11636;52.086;5.090;2023-04-06T15:25:30;14.07;;;10.40;;
22939;SDS011;11636;52.086;5.090;2023-04-06T15:28:24;12.27;;;9.60;;
22939;SDS011;11636;52.086;5.090;2023-04-06T15:31:15;12.90;;;10.40;;
22939;SDS011;11636;52.086;5.090;2023-04-06T15:34:23;15.48;;;10.63;;
22939;SDS011;11636;52.086;5.090;2023-04-06T15:37:10;12.80;;;9.98;;
22939;SDS011;11636;52.086;5.090;2023-04-06T15:40:04;12.70;;;9.45;;
22939;SDS011;11636;52.086;5.090;2023-04-06T15:42:52;13.85;;;10.07;;
22939;SDS011;11636;52.086;5.090;2023-04-06T15:45:46;14.20;;;11.05;;
22939;SDS011;11636;52.086;5.090;2023-04-06T15:48:33;16.38;;;11.35;;
22939;SDS011;11636;52.086;5.090;2023-04-06T15:51:27;16.58;;;11.40;;
22939;SDS011;11636;52.086;5.090;2023-04-06T15:54:22;15.45;;;12.02;;
22939;SDS011;11636;52.086;5.090;2023-04-06T15:57:09;15.38;;;12.00;;
22939;SDS011;11636;52.086;5.090;2023-04-06T16:00:03;21.42;;;15.57;;
22939;SDS011;11636;52.086;5.090;2023-04-06T16:02:51;18.25;;;13.88;;
22939;SDS011;11636;52.086;5.090;2023-04-06T16:05:45;16.27;;;12.30;;
22939;SDS011;11636;52.086;5.090;2023-04-06T16:08:44;14.73;;;11.38;;
22939;SDS011;11636;52.086;5.090;2023-04-06T16:11:38;15.80;;;11.00;;
22939;SDS011;11636;52.086;5.090;2023-04-06T16:14:25;13.88;;;10.52;;
22939;SDS011;11636;52.086;5.090;2023-04-06T16:17:19;13.38;;;10.48;;
22939;SDS011;11636;52.086;5.090;2023-04-06T16:20:07;13.70;;;10.85;;
22939;SDS011;11636;52.086;5.090;2023-04-06T16:23:01;13.10;;;10.52;;
22939;SDS011;11636;52.086;5.090;2023-04-06T16:25:48;12.07;;;9.70;;
22939;SDS011;11636;52.086;5.090;2023-04-06T16:28:43;12.82;;;10.13;;
22939;SDS011;11636;52.086;5.090;2023-04-06T16:31:37;14.88;;;11.40;;
22939;SDS011;11636;52.086;5.090;2023-04-06T16:34:24;14.25;;;11.07;;
22939;SDS011;11636;52.086;5.090;2023-04-06T16:37:23;15.93;;;11.40;;
22939;SDS011;11636;52.086;5.090;2023-04-06T16:40:12;13.95;;;10.55;;
22939;SDS011;11636;52.086;5.090;2023-04-06T16:43:07;12.95;;;10.70;;
22939;SDS011;11636;52.086;5.090;2023-04-06T16:45:55;14.20;;;11.63;;
22939;SDS011;11636;52.086;5.090;2023-04-06T16:48:49;13.75;;;11.00;;
22939;SDS011;11636;52.086;5.090;2023-04-06T16:51:38;13.10;;;10.80;;
22939;SDS011;11636;52.086;5.090;2023-04-06T16:54:33;12.23;;;10.23;;
22939;SDS011;11636;52.086;5.090;2023-04-06T16:57:20;12.50;;;9.90;;
22939;SDS011;11636;52.086;5.090;2023-04-06T17:00:16;14.65;;;10.80;;